createdAt,value
2019-01-02T00:00:44.014Z,30.40
2019-01-02T00:03:13.463Z,32.63
2019-01-02T00:05:43.194Z,34.13
2019-01-02T00:08:12.580Z,34.27
2019-01-02T00:10:42.417Z,36.17
2019-01-02T00:13:11.879Z,39.37
2019-01-02T00:15:41.293Z,39.73
2019-01-02T00:18:10.755Z,38.70
2019-01-02T00:20:40.244Z,37.53
2019-01-02T00:23:10.303Z,36.43
2019-01-02T00:25:39.743Z,36.97
2019-01-02T00:28:09.463Z,40.83
2019-01-02T00:30:39.007Z,37.37
2019-01-02T00:33:09.014Z,41.00
2019-01-02T00:35:38.477Z,36.57
2019-01-02T00:38:08.027Z,39.70
2019-01-02T00:40:37.570Z,37.90
2019-01-02T00:43:07.158Z,39.07
2019-01-02T00:45:36.645Z,36.77
2019-01-02T00:48:06.073Z,35.27
2019-01-02T00:50:35.882Z,36.40
2019-01-02T00:53:05.413Z,38.30
2019-01-02T00:55:35.166Z,35.90
2019-01-02T00:58:04.622Z,34.83
2019-01-02T01:00:34.448Z,36.40
2019-01-02T01:03:04.008Z,32.80
2019-01-02T01:05:33.791Z,34.80
2019-01-02T01:08:03.186Z,34.73
2019-01-02T01:10:32.710Z,33.10
2019-01-02T01:13:02.152Z,35.40
2019-01-02T01:15:31.700Z,37.40
2019-01-02T01:18:01.085Z,37.30
2019-01-02T01:20:30.568Z,37.47
2019-01-02T01:23:00.136Z,38.10
2019-01-02T01:25:29.887Z,36.53
2019-01-02T01:27:59.251Z,36.70
2019-01-02T01:30:28.825Z,38.10
2019-01-02T01:32:58.267Z,38.67
2019-01-02T01:35:27.760Z,36.13
2019-01-02T01:37:57.696Z,39.67
2019-01-02T01:40:27.210Z,37.17
2019-01-02T01:42:56.777Z,39.90
2019-01-02T01:45:26.589Z,44.80
2019-01-02T01:47:56.084Z,43.53
2019-01-02T01:50:25.582Z,44.70
2019-01-02T01:52:55.123Z,45.33
2019-01-02T01:55:24.589Z,42.07
2019-01-02T01:57:54.324Z,43.50
2019-01-02T02:00:23.981Z,41.47
2019-01-02T02:02:53.660Z,38.60
2019-01-02T02:05:23.569Z,39.80
2019-01-02T02:07:53.057Z,40.20
2019-01-02T02:10:22.545Z,38.63
2019-01-02T02:12:52.128Z,34.00
2019-01-02T02:15:21.592Z,33.40
2019-01-02T02:17:51.391Z,31.73
2019-01-02T02:20:20.872Z,33.60
2019-01-02T02:22:50.554Z,29.77
2019-01-02T02:25:21.548Z,27.27
2019-01-02T02:27:51.016Z,27.70
2019-01-02T02:30:20.881Z,21.53
2019-01-02T02:32:51.929Z,22.03
2019-01-02T02:35:21.695Z,22.47
2019-01-02T02:37:51.576Z,23.10
2019-01-02T02:40:21.105Z,23.37
2019-01-02T02:42:50.499Z,20.90
2019-01-02T02:45:20.224Z,22.03
2019-01-02T02:47:50.108Z,20.47
2019-01-02T02:50:19.919Z,24.67
2019-01-02T02:52:49.575Z,25.47
2019-01-02T02:55:27.163Z,21.33
2019-01-02T02:57:56.772Z,23.90
2019-01-02T03:00:26.204Z,25.10
2019-01-02T03:02:55.636Z,27.47
2019-01-02T03:05:25.110Z,24.60
2019-01-02T03:07:54.651Z,27.87
2019-01-02T03:10:24.615Z,22.00
2019-01-02T03:12:54.309Z,19.70
2019-01-02T03:15:24.251Z,22.70
2019-01-02T03:17:53.750Z,23.37
2019-01-02T03:20:23.163Z,23.10
2019-01-02T03:22:52.579Z,23.20
2019-01-02T03:25:22.472Z,20.63
2019-01-02T03:27:52.841Z,23.00
2019-01-02T03:30:22.500Z,20.60
2019-01-02T03:32:52.173Z,22.37
2019-01-02T03:35:22.034Z,20.70
2019-01-02T03:37:51.527Z,19.40
2019-01-02T03:40:21.459Z,20.70
2019-01-02T03:42:50.878Z,19.47
2019-01-02T03:45:20.868Z,18.77
2019-01-02T03:47:50.625Z,20.97
2019-01-02T03:50:21.021Z,16.27
2019-01-02T03:52:50.447Z,18.20
2019-01-02T03:55:19.992Z,16.73
2019-01-02T03:57:50.017Z,18.47
2019-01-02T04:00:20.664Z,17.00
2019-01-02T04:02:50.302Z,18.00
2019-01-02T04:05:25.061Z,19.97
2019-01-02T04:07:58.694Z,23.67
2019-01-02T04:10:28.222Z,23.93
2019-01-02T04:12:57.766Z,20.77
2019-01-02T04:15:27.361Z,17.77
2019-01-02T04:17:56.771Z,18.00
2019-01-02T04:20:26.243Z,16.33
2019-01-02T04:22:55.795Z,16.40
2019-01-02T04:25:25.218Z,18.80
2019-01-02T04:27:54.690Z,21.70
2019-01-02T04:30:24.175Z,20.30
2019-01-02T04:32:53.669Z,21.10
2019-01-02T04:35:23.176Z,21.07
2019-01-02T04:37:52.601Z,20.50
2019-01-02T04:40:22.096Z,22.07
2019-01-02T04:42:51.599Z,28.53
2019-01-02T04:45:21.022Z,28.80
2019-01-02T04:47:50.531Z,26.47
2019-01-02T04:50:20.017Z,25.83
2019-01-02T04:52:49.516Z,30.30
2019-01-02T04:55:18.920Z,32.50
2019-01-02T04:57:48.346Z,28.93
2019-01-02T05:00:18.644Z,29.20
2019-01-02T05:02:48.142Z,27.50
2019-01-02T05:05:17.579Z,30.60
2019-01-02T05:07:47.584Z,28.63
2019-01-02T05:10:17.100Z,28.10
2019-01-02T05:12:46.638Z,72.70
2019-01-02T05:15:16.097Z,48.40
2019-01-02T05:17:45.606Z,36.13
2019-01-02T05:20:16.673Z,31.97
2019-01-02T05:22:46.143Z,30.03
2019-01-02T05:25:15.630Z,28.23
2019-01-02T05:27:45.638Z,28.30
2019-01-02T05:30:19.537Z,26.83
2019-01-02T05:32:48.996Z,29.87
2019-01-02T05:35:18.470Z,33.57
2019-01-02T05:37:48.007Z,32.70
2019-01-02T05:40:22.521Z,32.20
2019-01-02T05:42:51.987Z,37.67
2019-01-02T05:45:21.435Z,40.67
2019-01-02T05:47:50.920Z,42.73
2019-01-02T05:50:20.414Z,41.10
2019-01-02T05:52:49.902Z,34.03
2019-01-02T05:55:19.392Z,32.00
2019-01-02T05:57:48.896Z,31.70
2019-01-02T06:00:18.339Z,30.47
2019-01-02T06:02:47.850Z,28.40
2019-01-02T06:05:17.444Z,28.40
2019-01-02T06:07:47.052Z,30.57
2019-01-02T06:10:17.083Z,34.53
2019-01-02T06:12:46.536Z,31.53
2019-01-02T06:15:17.345Z,29.97
2019-01-02T06:17:46.790Z,51.97
2019-01-02T06:20:17.657Z,31.47
2019-01-02T06:22:47.024Z,35.13
2019-01-02T06:25:16.522Z,38.70
2019-01-02T06:27:46.047Z,39.60
2019-01-02T06:30:15.483Z,33.37
2019-01-02T06:32:44.955Z,32.60
2019-01-02T06:35:14.521Z,30.13
2019-01-02T06:37:44.066Z,28.37
2019-01-02T06:40:14.294Z,30.60
2019-01-02T06:42:43.797Z,29.87
2019-01-02T06:45:15.271Z,30.17
2019-01-02T06:47:44.681Z,26.77
2019-01-02T06:50:20.038Z,29.50
2019-01-02T06:52:49.535Z,31.77
2019-01-02T06:55:19.128Z,45.20
2019-01-02T06:57:48.526Z,30.73
2019-01-02T07:00:39.779Z,29.13
2019-01-02T07:03:09.221Z,29.13
2019-01-02T07:05:38.612Z,29.60
2019-01-02T07:08:08.122Z,29.73
2019-01-02T07:10:37.569Z,32.90
2019-01-02T07:13:07.022Z,32.57
2019-01-02T07:15:36.424Z,37.40
2019-01-02T07:18:05.799Z,38.47
2019-01-02T07:20:35.297Z,41.97
2019-01-02T07:23:04.733Z,40.03
2019-01-02T07:25:34.246Z,40.67
2019-01-02T07:28:03.650Z,42.60
2019-01-02T07:30:33.149Z,38.53
2019-01-02T07:33:02.597Z,37.30
2019-01-02T07:36:12.511Z,35.30
2019-01-02T07:39:05.665Z,29.97
2019-01-02T07:42:28.110Z,40.63
2019-01-02T07:45:50.583Z,51.60
2019-01-02T07:49:25.000Z,46.47
2019-01-02T07:52:29.635Z,42.30
2019-01-02T07:55:49.214Z,38.40
2019-01-02T07:58:41.744Z,31.30
2019-01-02T08:02:00.032Z,31.67
2019-01-02T08:05:10.096Z,36.80
2019-01-02T08:08:16.258Z,38.10
2019-01-02T08:11:22.760Z,36.53
2019-01-02T08:14:38.198Z,41.70
2019-01-02T08:18:00.795Z,37.07
2019-01-02T08:21:29.428Z,37.83
2019-01-02T08:24:48.647Z,32.60
2019-01-02T08:27:46.165Z,27.60
2019-01-02T08:30:54.881Z,27.83
2019-01-02T08:33:55.339Z,26.70
2019-01-02T08:37:20.906Z,24.97
2019-01-02T08:40:14.203Z,27.13
2019-01-02T08:43:15.024Z,28.17
2019-01-02T08:46:25.608Z,26.60
2019-01-02T08:49:51.136Z,26.10
2019-01-02T08:52:58.551Z,24.03
2019-01-02T08:56:15.341Z,29.30
2019-01-02T08:58:57.133Z,23.63
2019-01-02T09:01:55.749Z,22.17
2019-01-02T09:04:47.209Z,19.50
2019-01-02T09:07:47.812Z,18.40
2019-01-02T09:11:16.469Z,18.27
2019-01-02T09:14:27.007Z,20.73
2019-01-02T09:17:58.506Z,24.13
2019-01-02T09:21:06.582Z,19.03
2019-01-02T09:24:28.921Z,17.80
2019-01-02T09:27:45.375Z,20.40
2019-01-02T09:31:11.349Z,19.40
2019-01-02T09:34:15.949Z,21.73
2019-01-02T09:37:26.376Z,23.47
2019-01-02T09:40:33.993Z,20.80
2019-01-02T09:44:05.571Z,19.80
2019-01-02T09:47:13.237Z,19.97
2019-01-02T09:50:12.373Z,19.30
2019-01-02T09:53:26.790Z,18.67
2019-01-02T09:56:24.780Z,19.20
2019-01-02T09:59:16.561Z,17.30
2019-01-02T10:02:18.546Z,18.80
2019-01-02T10:05:34.704Z,18.97
2019-01-02T10:08:48.709Z,22.40
2019-01-02T10:11:58.184Z,20.70
2019-01-02T10:14:45.955Z,19.93
2019-01-02T10:18:01.399Z,20.90
2019-01-02T10:21:06.375Z,20.60
2019-01-02T10:24:18.029Z,18.07
2019-01-02T10:27:26.524Z,19.83
2019-01-02T10:30:27.690Z,18.50
2019-01-02T10:34:02.663Z,16.20
2019-01-02T10:37:07.622Z,18.27
2019-01-02T10:40:17.866Z,15.47
2019-01-02T10:43:14.942Z,15.80
2019-01-02T10:46:21.154Z,16.13
2019-01-02T10:49:17.320Z,17.00
2019-01-02T10:52:32.350Z,14.23
2019-01-02T10:55:23.902Z,15.30
2019-01-02T10:58:55.261Z,13.07
2019-01-02T11:02:11.442Z,11.47
2019-01-02T11:05:32.984Z,14.57
2019-01-02T11:08:36.379Z,15.73
2019-01-02T11:11:37.062Z,20.57
2019-01-02T11:14:17.051Z,23.70
2019-01-02T11:17:18.976Z,26.57
2019-01-02T11:20:57.019Z,28.40
2019-01-02T11:24:09.806Z,19.40
2019-01-02T11:27:13.881Z,21.50
2019-01-02T11:30:18.500Z,24.83
2019-01-02T11:33:20.257Z,16.87
2019-01-02T11:36:26.279Z,25.27
2019-01-02T11:39:57.320Z,19.37
2019-01-02T11:43:18.960Z,15.60
2019-01-02T11:45:48.347Z,14.60
2019-01-02T11:48:17.738Z,13.40
2019-01-02T11:50:47.270Z,12.90
2019-01-02T11:53:16.778Z,12.53
2019-01-02T11:55:46.339Z,13.20
2019-01-02T11:58:16.277Z,11.90
2019-01-02T12:00:45.714Z,14.20
2019-01-02T12:03:15.294Z,12.20
2019-01-02T12:05:44.731Z,10.47
2019-01-02T12:08:14.289Z,11.27
2019-01-02T12:10:43.754Z,12.10
2019-01-02T12:13:13.279Z,12.73
2019-01-02T12:15:42.695Z,9.77
2019-01-02T12:18:12.182Z,10.60
2019-01-02T12:20:41.638Z,11.37
2019-01-02T12:23:11.082Z,11.90
2019-01-02T12:25:40.474Z,10.43
2019-01-02T12:28:09.875Z,11.67
2019-01-02T12:30:39.396Z,11.30
2019-01-02T12:33:08.948Z,10.93
2019-01-02T12:35:38.408Z,8.23
2019-01-02T12:38:07.860Z,13.33
2019-01-02T12:40:37.404Z,14.20
2019-01-02T12:43:06.808Z,13.17
2019-01-02T12:45:36.302Z,10.73
2019-01-02T12:48:05.823Z,8.87
2019-01-02T12:50:35.322Z,11.10
2019-01-02T12:53:04.765Z,10.60
2019-01-02T12:55:34.322Z,12.87
2019-01-02T12:58:03.801Z,14.10
2019-01-02T13:00:39.383Z,11.20
2019-01-02T13:03:25.778Z,12.47
2019-01-02T13:06:51.415Z,11.60
2019-01-02T13:09:44.969Z,23.40
2019-01-02T13:12:45.125Z,10.30
2019-01-02T13:15:35.276Z,13.37
2019-01-02T13:18:42.809Z,11.10
2019-01-02T13:22:11.267Z,10.03
2019-01-02T13:25:19.683Z,12.70
2019-01-02T13:28:31.065Z,12.27
2019-01-02T13:31:43.416Z,13.27
2019-01-02T13:34:45.012Z,13.73
2019-01-02T13:37:56.816Z,16.40
2019-01-02T13:41:10.042Z,13.80
2019-01-02T13:43:57.789Z,13.40
2019-01-02T13:47:03.960Z,9.00
2019-01-02T13:49:53.760Z,11.97
2019-01-02T13:52:23.261Z,13.80
2019-01-02T13:54:54.301Z,17.60
2019-01-02T13:57:23.839Z,11.27
2019-01-02T13:59:53.288Z,10.80
2019-01-02T14:02:23.802Z,15.70
2019-01-02T14:04:53.256Z,14.80
2019-01-02T14:07:22.683Z,13.77
2019-01-02T14:09:52.309Z,10.03
2019-01-02T14:12:21.798Z,12.47
2019-01-02T14:14:51.256Z,11.60
2019-01-02T14:17:20.727Z,10.10
2019-01-02T14:19:50.259Z,9.70
2019-01-02T14:22:19.646Z,10.27
2019-01-02T14:24:49.138Z,9.07
2019-01-02T14:27:18.614Z,8.53
2019-01-02T14:29:48.089Z,8.77
2019-01-02T14:32:17.542Z,10.67
2019-01-02T14:34:47.067Z,13.50
2019-01-02T14:37:16.553Z,10.37
2019-01-02T14:39:46.063Z,11.23
2019-01-02T14:42:15.662Z,11.93
2019-01-02T14:44:45.121Z,13.97
2019-01-02T14:47:14.555Z,12.43
2019-01-02T14:49:44.002Z,11.30
2019-01-02T14:52:13.462Z,13.30
2019-01-02T14:54:42.943Z,8.30
2019-01-02T14:57:12.408Z,13.33
2019-01-02T14:59:41.903Z,13.60
2019-01-02T15:02:11.350Z,12.73
2019-01-02T15:04:40.848Z,11.03
2019-01-02T15:07:10.384Z,15.57
2019-01-02T15:09:39.823Z,12.07
2019-01-02T15:12:09.253Z,12.17
2019-01-02T15:14:38.883Z,13.67
2019-01-02T15:17:08.373Z,14.80
2019-01-02T15:19:37.916Z,13.87
2019-01-02T15:22:07.445Z,14.13
2019-01-02T15:24:36.914Z,18.47
2019-01-02T15:27:06.370Z,20.93
2019-01-02T15:29:35.764Z,17.03
2019-01-02T15:32:05.223Z,18.40
2019-01-02T15:34:34.709Z,17.80
2019-01-02T15:37:04.265Z,16.17
2019-01-02T15:39:33.801Z,19.13
2019-01-02T15:42:03.275Z,12.90
2019-01-02T15:44:32.760Z,13.47
2019-01-02T15:47:08.529Z,14.67
2019-01-02T15:49:34.872Z,14.23
2019-01-02T15:52:04.529Z,10.70
2019-01-02T15:54:33.958Z,13.13
2019-01-02T15:57:03.443Z,11.40
2019-01-02T15:59:33.088Z,10.30
2019-01-02T16:02:02.583Z,10.50
2019-01-02T16:04:32.143Z,11.23
2019-01-02T16:07:01.664Z,9.03
2019-01-02T16:09:31.232Z,11.33
2019-01-02T16:12:00.687Z,11.20
2019-01-02T16:14:30.140Z,10.77
2019-01-02T16:16:59.745Z,10.67
2019-01-02T16:19:29.238Z,8.93
2019-01-02T16:21:58.690Z,10.30
2019-01-02T16:24:28.142Z,9.07
2019-01-02T16:26:58.260Z,7.53
2019-01-02T16:29:27.840Z,17.80
2019-01-02T16:31:57.420Z,13.43
2019-01-02T16:34:26.811Z,23.27
2019-01-02T16:36:56.242Z,21.43
2019-01-02T16:39:25.699Z,15.03
2019-01-02T16:41:55.198Z,25.90
2019-01-02T16:44:24.636Z,31.47
2019-01-02T16:46:54.008Z,29.20
2019-01-02T16:49:23.572Z,21.70
2019-01-02T16:51:53.035Z,16.77
2019-01-02T16:54:22.454Z,12.20
2019-01-02T16:56:51.937Z,13.73
2019-01-02T16:59:21.601Z,12.20
2019-01-02T17:01:50.967Z,14.63
2019-01-02T17:04:20.532Z,9.90
2019-01-02T17:06:50.044Z,13.67
2019-01-02T17:09:19.519Z,27.20
2019-01-02T17:11:49.161Z,24.30
2019-01-02T17:14:18.713Z,11.50
2019-01-02T17:16:48.174Z,8.90
2019-01-02T17:19:17.643Z,8.33
2019-01-02T17:21:47.093Z,7.03
2019-01-02T17:24:16.575Z,9.80
2019-01-02T17:26:46.443Z,9.83
2019-01-02T17:29:15.956Z,8.80
2019-01-02T17:31:45.446Z,10.47
2019-01-02T17:34:14.900Z,10.60
2019-01-02T17:36:44.356Z,9.40
2019-01-02T17:39:13.753Z,8.10
2019-01-02T17:41:43.192Z,9.83
2019-01-02T17:44:12.694Z,8.37
2019-01-02T17:46:42.182Z,9.30
2019-01-02T17:49:11.663Z,9.80
2019-01-02T17:51:41.129Z,8.00
2019-01-02T17:54:11.359Z,8.43
2019-01-02T17:56:40.804Z,7.97
2019-01-02T17:59:10.262Z,9.60
2019-01-02T18:01:39.711Z,8.37
2019-01-02T18:04:09.189Z,8.20
2019-01-02T18:06:38.605Z,8.27
2019-01-02T18:09:08.881Z,8.53
2019-01-02T18:11:38.352Z,11.30
2019-01-02T18:14:07.879Z,17.33
2019-01-02T18:16:37.404Z,11.00
2019-01-02T18:19:06.844Z,21.77
2019-01-02T18:21:36.291Z,11.23
2019-01-02T18:24:06.156Z,11.50
2019-01-02T18:26:36.148Z,11.27
2019-01-02T18:29:05.641Z,17.00
2019-01-02T18:31:35.617Z,14.93
2019-01-02T18:34:05.043Z,9.00
2019-01-02T18:36:34.514Z,10.03
2019-01-02T18:39:04.652Z,9.90
2019-01-02T18:41:34.178Z,8.40
2019-01-02T18:44:04.350Z,12.10
2019-01-02T18:46:33.753Z,9.27
2019-01-02T18:49:03.263Z,9.50
2019-01-02T18:51:32.792Z,7.20
2019-01-02T18:54:02.259Z,6.67
2019-01-02T18:56:31.735Z,5.67
2019-01-02T18:59:01.180Z,7.17
2019-01-02T19:01:30.553Z,7.60
2019-01-02T19:03:59.980Z,8.20
2019-01-02T19:06:29.471Z,8.00
2019-01-02T19:08:59.058Z,6.10
2019-01-02T19:11:28.499Z,7.73
2019-01-02T19:13:57.953Z,7.67
2019-01-02T19:16:27.420Z,7.07
2019-01-02T19:18:56.915Z,6.20
2019-01-02T19:21:26.400Z,8.37
2019-01-02T19:23:55.773Z,5.63
2019-01-02T19:26:25.215Z,7.60
2019-01-02T19:28:54.732Z,8.27
2019-01-02T19:31:24.118Z,6.20
2019-01-02T19:33:53.490Z,5.33
2019-01-02T19:36:22.985Z,6.63
2019-01-02T19:38:52.501Z,6.50
2019-01-02T19:41:21.895Z,5.83
2019-01-02T19:43:51.408Z,8.27
2019-01-02T19:46:20.901Z,6.23
2019-01-02T19:48:50.333Z,6.63
2019-01-02T19:51:19.871Z,6.93
2019-01-02T19:53:49.358Z,7.00
2019-01-02T19:56:18.797Z,6.23
2019-01-02T19:58:48.191Z,8.30
2019-01-02T20:01:17.687Z,7.20
2019-01-02T20:03:47.143Z,6.50
2019-01-02T20:06:16.583Z,7.70
2019-01-02T20:08:45.994Z,7.03
2019-01-02T20:11:15.445Z,6.67
2019-01-02T20:13:44.908Z,4.57
2019-01-02T20:16:14.405Z,6.90
2019-01-02T20:18:43.837Z,6.93
2019-01-02T20:21:13.226Z,7.40
2019-01-02T20:23:42.728Z,7.30
2019-01-02T20:26:12.204Z,7.03
2019-01-02T20:28:41.635Z,7.93
2019-01-02T20:31:11.075Z,6.10
2019-01-02T20:33:40.538Z,8.80
2019-01-02T20:36:09.909Z,4.47
2019-01-02T20:38:39.320Z,6.27
2019-01-02T20:41:08.830Z,6.60
2019-01-02T20:43:38.306Z,5.43
2019-01-02T20:46:07.702Z,6.70
2019-01-02T20:48:37.059Z,5.20
2019-01-02T20:51:06.481Z,6.93
2019-01-02T20:53:35.954Z,4.17
2019-01-02T20:56:05.476Z,5.70
2019-01-02T20:58:34.878Z,7.67
2019-01-02T21:01:04.358Z,4.37
2019-01-02T21:03:33.750Z,6.77
2019-01-02T21:06:03.243Z,4.80
2019-01-02T21:08:32.752Z,4.87
2019-01-02T21:11:02.156Z,4.60
2019-01-02T21:13:31.586Z,4.70
2019-01-02T21:16:00.990Z,4.00
2019-01-02T21:18:30.494Z,5.20
2019-01-02T21:20:59.998Z,5.10
2019-01-02T21:23:29.357Z,4.17
2019-01-02T21:25:59.724Z,4.00
2019-01-02T21:28:29.237Z,3.70
2019-01-02T21:30:58.675Z,4.23
2019-01-02T21:33:28.067Z,4.07
2019-01-02T21:35:57.530Z,4.60
2019-01-02T21:38:26.948Z,4.27
2019-01-02T21:40:56.317Z,4.60
2019-01-02T21:43:25.722Z,3.23
2019-01-02T21:45:55.210Z,3.73
2019-01-02T21:48:24.656Z,4.60
2019-01-02T21:50:54.110Z,4.57
2019-01-02T21:53:23.587Z,4.20
2019-01-02T21:55:53.074Z,3.80
2019-01-02T21:58:22.555Z,5.00
2019-01-02T22:00:52.141Z,3.60
2019-01-02T22:03:21.537Z,4.10
2019-01-02T22:05:51.466Z,7.23
2019-01-02T22:08:20.909Z,4.40
2019-01-02T22:10:50.400Z,10.53
2019-01-02T22:13:19.767Z,6.27
2019-01-02T22:15:49.239Z,8.33
2019-01-02T22:18:18.742Z,4.20
2019-01-02T22:20:48.149Z,6.70
2019-01-02T22:23:17.685Z,4.80
2019-01-02T22:25:47.117Z,4.20
2019-01-02T22:28:16.514Z,3.57
2019-01-02T22:30:45.913Z,5.17
2019-01-02T22:33:15.393Z,5.00
2019-01-02T22:35:44.814Z,4.27
2019-01-02T22:38:14.294Z,5.77
2019-01-02T22:40:43.759Z,4.67
2019-01-02T22:43:13.275Z,4.20
2019-01-02T22:45:42.718Z,3.70
2019-01-02T22:48:12.123Z,3.83
2019-01-02T22:50:41.526Z,5.43
2019-01-02T22:53:11.010Z,4.07
2019-01-02T22:55:40.452Z,4.30
2019-01-02T22:58:09.882Z,6.80
2019-01-02T23:00:56.547Z,4.90
2019-01-02T23:03:43.372Z,7.07
2019-01-02T23:06:30.113Z,7.57
2019-01-02T23:09:21.236Z,5.07
2019-01-02T23:12:12.642Z,5.57
2019-01-02T23:15:08.196Z,5.50
2019-01-02T23:18:02.292Z,14.27
2019-01-02T23:20:53.589Z,18.10
2019-01-02T23:23:44.923Z,31.07
2019-01-02T23:26:45.031Z,42.10
2019-01-02T23:29:39.183Z,35.83
2019-01-02T23:32:25.794Z,16.17
2019-01-02T23:35:32.279Z,21.50
2019-01-02T23:38:35.763Z,29.50
2019-01-02T23:41:27.083Z,26.83
2019-01-02T23:44:13.683Z,6.37
2019-01-02T23:47:00.636Z,27.97
2019-01-02T23:49:48.921Z,16.23
2019-01-02T23:52:39.473Z,8.90
2019-01-02T23:55:26.340Z,5.10
2019-01-02T23:58:23.542Z,6.83
